createdAt,value
2022-12-06T00:01:41.462Z,113913.03
2022-12-06T00:04:12.592Z,113913.03
2022-12-06T00:06:44.266Z,113913.03
2022-12-06T00:09:19.143Z,113913.03
2022-12-06T00:11:49.747Z,113913.03
2022-12-06T00:14:19.738Z,113913.03
2022-12-06T00:16:48.820Z,113913.03
2022-12-06T00:19:19.764Z,113913.03
2022-12-06T00:21:48.999Z,113913.03
2022-12-06T00:24:25.327Z,113913.03
2022-12-06T00:26:55.856Z,114172.03
2022-12-06T00:29:25.698Z,114172.03
2022-12-06T00:31:54.792Z,114172.03
2022-12-06T00:34:23.443Z,114172.03
2022-12-06T00:36:52.394Z,114172.03
2022-12-06T00:39:21.489Z,114172.03
2022-12-06T00:41:50.419Z,114431.03
2022-12-06T00:44:21.054Z,114431.03
2022-12-06T00:46:49.807Z,114431.03
2022-12-06T00:49:18.883Z,114431.03
2022-12-06T00:51:47.853Z,114431.03
2022-12-06T00:54:17.331Z,114431.03
2022-12-06T00:56:46.426Z,114431.03
2022-12-06T00:59:15.527Z,114431.03
2022-12-06T01:01:46.221Z,114431.03
2022-12-06T01:04:15.009Z,114431.03
2022-12-06T01:06:45.331Z,114431.03
2022-12-06T01:09:25.670Z,114431.03
2022-12-06T01:12:08.487Z,114690.03
2022-12-06T01:14:46.558Z,114690.03
2022-12-06T01:17:29.147Z,114690.03
2022-12-06T01:20:10.368Z,114690.03
2022-12-06T01:22:48.621Z,114690.03
2022-12-06T01:25:25.896Z,114690.03
2022-12-06T01:27:56.286Z,114690.03
2022-12-06T01:30:26.341Z,114690.03
2022-12-06T01:33:11.423Z,114690.03
2022-12-06T01:35:46.086Z,114690.03
2022-12-06T01:38:19.119Z,114949.09
2022-12-06T01:40:50.371Z,114949.09
2022-12-06T01:43:39.044Z,114949.09
2022-12-06T01:46:29.041Z,114949.09
2022-12-06T01:49:07.509Z,114949.09
2022-12-06T01:51:36.877Z,114949.09
2022-12-06T01:54:09.465Z,114949.09
2022-12-06T01:56:39.760Z,114949.09
2022-12-06T01:59:09.725Z,114949.09
2022-12-06T02:01:40.958Z,114949.09
2022-12-06T02:04:12.426Z,114949.09
2022-12-06T02:06:42.486Z,114949.09
2022-12-06T02:09:13.348Z,114949.09
2022-12-06T02:11:43.917Z,114949.09
2022-12-06T02:14:16.800Z,115208.13
2022-12-06T02:17:06.191Z,115208.13
2022-12-06T02:20:04.749Z,115208.13
2022-12-06T02:22:48.661Z,115208.13
2022-12-06T02:25:39.504Z,115208.13
2022-12-06T02:28:43.897Z,115467.22
2022-12-06T02:31:16.951Z,115467.22
2022-12-06T02:33:50.179Z,115467.22
2022-12-06T02:36:26.862Z,115467.22
2022-12-06T02:38:59.391Z,115467.22
2022-12-06T02:41:32.090Z,115467.22
2022-12-06T02:44:05.939Z,115467.22
2022-12-06T02:46:41.719Z,115467.22
2022-12-06T02:49:12.028Z,115467.22
2022-12-06T02:51:41.642Z,115467.22
2022-12-06T02:54:11.567Z,115467.22
2022-12-06T02:56:39.999Z,115467.22
2022-12-06T02:59:08.425Z,115726.31
2022-12-06T03:01:42.175Z,115726.31
2022-12-06T03:04:49.372Z,115726.31
2022-12-06T03:07:31.425Z,115726.31
2022-12-06T03:10:18.798Z,115726.31
2022-12-06T03:12:53.839Z,115726.31
2022-12-06T03:15:34.286Z,115726.31
2022-12-06T03:18:12.538Z,115726.31
2022-12-06T03:20:46.226Z,115726.31
2022-12-06T03:23:24.186Z,115467.22
2022-12-06T03:26:06.385Z,115467.22
2022-12-06T03:28:45.148Z,115467.22
2022-12-06T03:31:17.083Z,115726.31
2022-12-06T03:34:07.578Z,115726.31
2022-12-06T03:36:41.670Z,115726.31
2022-12-06T03:39:14.690Z,115726.31
2022-12-06T03:41:50.058Z,115726.31
2022-12-06T03:44:24.460Z,115726.31
2022-12-06T03:47:03.482Z,115726.31
2022-12-06T03:49:45.886Z,115726.31
2022-12-06T03:52:15.907Z,115726.31
2022-12-06T03:54:58.177Z,115726.31
2022-12-06T03:57:32.563Z,115726.31
2022-12-06T04:00:01.443Z,115726.31
2022-12-06T04:02:31.437Z,115726.31
2022-12-06T04:05:07.832Z,115726.31
2022-12-06T04:07:41.507Z,115726.31
2022-12-06T04:10:11.707Z,115726.31
2022-12-06T04:13:01.265Z,115726.31
2022-12-06T04:15:31.440Z,115726.31
2022-12-06T04:18:11.287Z,115726.31
2022-12-06T04:21:04.119Z,115726.31
2022-12-06T04:23:34.422Z,115726.31
2022-12-06T04:26:03.196Z,115726.31
2022-12-06T04:28:49.381Z,115726.31
2022-12-06T04:31:35.462Z,115726.31
2022-12-06T04:34:21.867Z,115726.31
2022-12-06T04:37:09.196Z,115726.31
2022-12-06T04:39:38.047Z,115726.31
2022-12-06T04:42:24.367Z,115726.31
2022-12-06T04:44:53.697Z,115726.31
2022-12-06T04:47:22.329Z,115726.31
2022-12-06T04:49:51.131Z,115726.31
2022-12-06T04:52:21.034Z,115726.31
2022-12-06T04:54:49.676Z,115726.31
2022-12-06T04:57:19.330Z,115726.31
2022-12-06T04:59:49.567Z,115726.31
2022-12-06T05:02:18.047Z,115726.31
2022-12-06T05:04:46.642Z,115726.31
2022-12-06T05:07:15.287Z,115726.31
2022-12-06T05:09:45.283Z,115726.31
2022-12-06T05:12:13.793Z,115726.31
2022-12-06T05:14:42.220Z,115726.31
2022-12-06T05:17:10.872Z,115726.31
2022-12-06T05:19:39.297Z,115726.31
2022-12-06T05:22:11.644Z,115726.31
2022-12-06T05:24:40.208Z,115726.31
2022-12-06T05:27:10.091Z,115726.31
2022-12-06T05:29:38.805Z,115726.31
2022-12-06T05:32:07.980Z,115726.31
2022-12-06T05:34:36.794Z,115726.31
2022-12-06T05:37:05.516Z,115728.34
2022-12-06T05:39:33.946Z,115728.34
2022-12-06T05:42:02.938Z,115728.34
2022-12-06T05:44:32.968Z,115728.34
2022-12-06T05:47:01.478Z,115728.34
2022-12-06T05:49:30.074Z,115728.34
2022-12-06T05:52:03.678Z,115728.34
2022-12-06T05:54:32.836Z,115728.34
2022-12-06T05:57:01.283Z,115728.34
2022-12-06T05:59:30.094Z,115728.34
2022-12-06T06:02:00.062Z,115728.34
2022-12-06T06:04:29.079Z,115728.34
2022-12-06T06:06:59.138Z,115728.34
2022-12-06T06:09:28.792Z,115728.34
2022-12-06T06:11:57.513Z,115728.34
2022-12-06T06:14:27.838Z,115728.34
2022-12-06T06:16:56.236Z,115728.34
2022-12-06T06:19:26.080Z,115728.34
2022-12-06T06:21:54.423Z,115728.34
2022-12-06T06:24:23.890Z,115728.34
2022-12-06T06:26:52.383Z,115728.34
2022-12-06T06:29:20.956Z,115728.34
2022-12-06T06:31:49.441Z,115728.34
2022-12-06T06:34:17.825Z,115728.34
2022-12-06T06:36:47.631Z,115728.34
2022-12-06T06:39:16.039Z,115728.34
2022-12-06T06:41:44.385Z,115728.34
2022-12-06T06:44:14.519Z,115728.34
2022-12-06T06:46:44.044Z,115728.34
2022-12-06T06:49:13.341Z,115728.34
2022-12-06T06:51:42.157Z,115728.34
2022-12-06T06:54:12.716Z,115728.34
2022-12-06T06:56:41.362Z,115728.34
2022-12-06T06:59:10.664Z,115728.34
2022-12-06T07:01:39.670Z,115728.34
2022-12-06T07:04:08.202Z,115728.34
2022-12-06T07:06:36.853Z,115728.34
2022-12-06T07:09:05.825Z,115728.34
2022-12-06T07:11:35.774Z,115728.34
2022-12-06T07:14:04.907Z,115728.34
2022-12-06T07:16:33.273Z,115728.34
2022-12-06T07:19:07.556Z,115728.34
2022-12-06T07:21:37.647Z,115728.34
2022-12-06T07:24:06.273Z,115728.34
2022-12-06T07:26:37.001Z,115728.34
2022-12-06T07:29:05.900Z,115728.34
2022-12-06T07:31:35.621Z,115728.34
2022-12-06T07:34:04.495Z,115728.34
2022-12-06T07:36:34.444Z,115728.34
2022-12-06T07:39:02.925Z,115728.34
2022-12-06T07:41:49.636Z,115728.34
2022-12-06T07:44:56.928Z,115728.34
2022-12-06T07:47:35.082Z,115728.34
2022-12-06T07:50:04.631Z,115728.34
2022-12-06T07:52:34.540Z,115728.34
2022-12-06T07:55:03.763Z,115728.34
2022-12-06T07:57:32.259Z,115728.34
2022-12-06T08:00:02.923Z,115728.34
2022-12-06T08:02:41.283Z,115728.34
2022-12-06T08:05:11.856Z,115728.34
2022-12-06T08:07:40.503Z,115728.34
2022-12-06T08:10:09.917Z,115728.34
2022-12-06T08:12:38.739Z,115728.34
2022-12-06T08:15:13.235Z,115728.34
2022-12-06T08:17:42.565Z,115728.34
2022-12-06T08:20:12.477Z,115728.34
2022-12-06T08:22:41.497Z,115728.34
2022-12-06T08:25:11.009Z,115728.34
2022-12-06T08:27:39.656Z,115728.34
2022-12-06T08:30:10.392Z,115728.34
2022-12-06T08:32:39.075Z,115728.34
2022-12-06T08:35:08.187Z,115728.34
2022-12-06T08:37:36.917Z,115726.31
2022-12-06T08:40:06.628Z,115726.31
2022-12-06T08:42:35.108Z,115726.31
2022-12-06T08:45:03.638Z,115726.31
2022-12-06T08:47:33.680Z,115726.31
2022-12-06T08:50:02.606Z,115726.31
2022-12-06T08:52:31.298Z,115726.31
2022-12-06T08:54:59.735Z,115726.31
2022-12-06T08:57:28.427Z,115726.31
2022-12-06T08:59:56.907Z,115726.31
2022-12-06T09:02:25.458Z,115726.31
2022-12-06T09:04:55.532Z,115726.31
2022-12-06T09:07:26.503Z,115726.31
2022-12-06T09:09:55.218Z,115726.31
2022-12-06T09:12:24.670Z,115467.22
2022-12-06T09:14:53.191Z,115467.22
2022-12-06T09:17:21.872Z,115467.22
2022-12-06T09:19:50.584Z,115467.22
2022-12-06T09:22:20.860Z,115467.22
2022-12-06T09:24:50.017Z,115467.22
2022-12-06T09:27:20.972Z,115208.13
2022-12-06T09:29:49.579Z,115467.22
2022-12-06T09:32:18.132Z,115467.22
2022-12-06T09:34:46.848Z,115467.22
2022-12-06T09:37:15.685Z,115467.22
2022-12-06T09:39:50.056Z,115467.22
2022-12-06T09:42:36.788Z,115208.13
2022-12-06T09:45:41.854Z,115467.22
2022-12-06T09:48:32.505Z,115208.13
2022-12-06T09:51:13.389Z,115208.13
2022-12-06T09:53:56.644Z,114949.09
2022-12-06T09:56:32.508Z,114690.03
2022-12-06T09:59:13.739Z,114690.03
2022-12-06T10:01:57.815Z,114690.03
2022-12-06T10:04:48.096Z,114690.03
2022-12-06T10:07:26.322Z,114690.03
2022-12-06T10:10:05.625Z,114949.09
2022-12-06T10:12:53.061Z,114431.03
2022-12-06T10:15:33.836Z,114431.03
2022-12-06T10:18:20.606Z,113913.03
2022-12-06T10:20:55.356Z,113654.06
2022-12-06T10:23:38.930Z,113395.13
2022-12-06T10:26:15.711Z,113654.06
2022-12-06T10:28:48.596Z,113136.22
2022-12-06T10:31:24.607Z,112618.41
2022-12-06T10:33:57.536Z,112359.53
2022-12-06T10:36:38.285Z,113136.22
2022-12-06T10:39:18.132Z,113136.22
2022-12-06T10:41:54.232Z,112618.41
2022-12-06T10:44:30.055Z,112100.69
2022-12-06T10:47:05.457Z,112359.53
2022-12-06T10:49:43.110Z,112100.69
2022-12-06T10:52:24.147Z,111841.88
2022-12-06T10:55:04.413Z,111583.06
2022-12-06T10:57:42.808Z,112100.69
2022-12-06T11:00:19.292Z,112359.53
2022-12-06T11:02:57.749Z,111841.88
2022-12-06T11:05:32.073Z,110548.00
2022-12-06T11:08:08.760Z,110289.28
2022-12-06T11:10:40.976Z,110030.59
2022-12-06T11:13:22.736Z,110289.28
2022-12-06T11:16:00.716Z,110289.28
2022-12-06T11:18:33.794Z,111065.50
2022-12-06T11:21:15.247Z,111324.28
2022-12-06T11:23:50.536Z,111583.06
2022-12-06T11:26:30.749Z,111324.28
2022-12-06T11:29:06.084Z,109771.94
2022-12-06T11:31:41.553Z,109513.28
2022-12-06T11:34:17.579Z,108737.41
2022-12-06T11:36:48.589Z,107186.22
2022-12-06T11:39:18.148Z,107961.72
2022-12-06T11:41:50.747Z,105635.72
2022-12-06T11:44:22.010Z,108478.84
2022-12-06T11:46:56.976Z,108737.41
2022-12-06T11:49:33.580Z,104085.91
2022-12-06T11:52:07.731Z,99698.47
2022-12-06T11:54:42.811Z,95831.81
2022-12-06T11:57:22.892Z,92484.19
2022-12-06T12:00:19.466Z,85798.66
2022-12-06T12:02:53.844Z,91197.50
2022-12-06T12:05:25.432Z,88111.41
2022-12-06T12:07:57.660Z,83744.16
2022-12-06T12:10:31.953Z,85798.66
2022-12-06T12:13:35.142Z,80664.72
2022-12-06T12:16:07.726Z,76306.91
2022-12-06T12:18:41.447Z,80664.72
2022-12-06T12:21:10.185Z,76563.09
2022-12-06T12:23:43.972Z,78356.94
2022-12-06T12:26:15.199Z,78356.94
2022-12-06T12:28:45.708Z,81690.91
2022-12-06T12:31:20.552Z,78613.28
2022-12-06T12:34:11.838Z,76563.09
2022-12-06T12:36:40.733Z,78356.94
2022-12-06T12:39:24.549Z,78100.63
2022-12-06T12:41:53.287Z,74258.06
2022-12-06T12:44:37.511Z,74002.03
2022-12-06T12:47:19.999Z,65288.88
2022-12-06T12:50:03.394Z,62409.34
2022-12-06T12:52:39.931Z,59950.53
2022-12-06T12:55:17.878Z,62216.00
2022-12-06T12:57:49.588Z,61398.91
2022-12-06T13:00:21.173Z,60902.75
2022-12-06T13:02:55.881Z,60542.16
2022-12-06T13:05:34.609Z,58604.31
2022-12-06T13:08:13.718Z,58922.91
2022-12-06T13:10:46.538Z,61612.13
2022-12-06T13:13:18.904Z,62333.63
2022-12-06T13:15:49.749Z,62018.69
2022-12-06T13:18:22.149Z,62347.56
2022-12-06T13:20:54.940Z,61305.25
2022-12-06T13:23:26.469Z,60199.53
2022-12-06T13:26:08.509Z,59452.59
2022-12-06T13:28:41.023Z,58441.03
2022-12-06T13:31:16.040Z,57851.78
2022-12-06T13:33:49.613Z,58787.50
2022-12-06T13:36:20.912Z,58674.00
2022-12-06T13:38:49.650Z,57740.31
2022-12-06T13:42:10.248Z,58600.31
2022-12-06T13:44:43.077Z,58821.34
2022-12-06T13:47:40.495Z,57851.78
2022-12-06T13:50:53.591Z,57368.09
2022-12-06T13:53:25.638Z,57397.94
2022-12-06T13:56:01.917Z,56944.19
2022-12-06T13:58:43.437Z,57015.81
2022-12-06T14:01:40.501Z,56192.00
2022-12-06T14:09:42.757Z,56259.66
2022-12-06T14:12:19.350Z,56695.41
2022-12-06T14:14:57.859Z,56353.16
2022-12-06T14:18:00.009Z,56426.78
2022-12-06T14:20:23.353Z,56466.59
2022-12-06T14:22:52.366Z,55810.03
2022-12-06T14:25:24.664Z,56188.03
2022-12-06T14:28:04.379Z,56128.34
2022-12-06T14:30:33.774Z,55821.94
2022-12-06T14:33:02.505Z,55640.91
2022-12-06T14:35:36.066Z,55424.09
2022-12-06T14:38:22.713Z,55449.94
2022-12-06T14:41:10.901Z,55344.53
2022-12-06T14:43:40.857Z,55404.19
2022-12-06T14:46:13.896Z,55288.84
2022-12-06T14:49:00.553Z,55360.44
2022-12-06T14:51:37.203Z,55310.72
2022-12-06T14:54:19.089Z,55139.66
2022-12-06T14:56:49.638Z,55241.09
2022-12-06T14:59:47.409Z,55322.66
2022-12-06T15:02:22.938Z,55374.38
2022-12-06T15:04:51.580Z,55549.41
2022-12-06T15:07:44.502Z,55449.94
2022-12-06T15:10:22.800Z,55495.69
2022-12-06T15:12:56.382Z,55535.50
2022-12-06T15:15:36.583Z,55593.19
2022-12-06T15:18:13.956Z,55790.13
2022-12-06T15:20:42.431Z,55939.34
2022-12-06T15:23:30.054Z,56168.13
2022-12-06T15:26:00.196Z,56315.38
2022-12-06T15:28:30.172Z,56319.34
2022-12-06T15:30:59.768Z,56221.84
2022-12-06T15:33:28.585Z,56478.53
2022-12-06T15:35:58.390Z,56438.72
2022-12-06T15:38:27.135Z,56570.06
2022-12-06T15:40:56.987Z,56597.91
2022-12-06T15:43:29.012Z,56621.78
2022-12-06T15:46:01.594Z,56745.16
2022-12-06T15:48:31.677Z,56974.03
2022-12-06T15:51:01.127Z,57035.72
2022-12-06T15:53:30.662Z,57023.78
2022-12-06T15:55:59.256Z,57101.41
2022-12-06T15:58:28.314Z,57186.97
2022-12-06T16:01:00.112Z,57224.78
2022-12-06T16:03:28.817Z,57240.72
2022-12-06T16:05:58.457Z,57077.50
2022-12-06T16:08:27.155Z,57254.63
2022-12-06T16:11:11.758Z,57183.00
2022-12-06T16:13:41.370Z,57238.72
2022-12-06T16:16:12.257Z,57342.22
2022-12-06T16:18:40.927Z,57196.94
2022-12-06T16:21:09.600Z,57153.13
2022-12-06T16:26:45.751Z,56983.97
2022-12-06T16:29:17.448Z,56942.19
2022-12-06T16:31:48.769Z,57141.19
2022-12-06T16:34:17.476Z,57417.84
2022-12-06T16:37:01.029Z,57278.53
2022-12-06T16:39:31.391Z,57541.25
2022-12-06T16:41:59.930Z,57806.00
2022-12-06T16:44:28.759Z,57907.50
2022-12-06T16:46:59.637Z,57939.38
2022-12-06T16:49:48.316Z,57907.50
2022-12-06T16:52:18.252Z,57569.13
2022-12-06T16:54:46.631Z,57624.84
2022-12-06T16:57:15.700Z,57600.97
2022-12-06T16:59:44.252Z,57547.22
2022-12-06T17:02:29.888Z,57449.69
2022-12-06T17:05:01.486Z,57135.22
2022-12-06T17:07:30.976Z,57334.25
2022-12-06T17:10:00.942Z,57620.88
2022-12-06T17:12:29.489Z,57684.56
2022-12-06T17:14:57.926Z,57702.47
2022-12-06T17:17:29.436Z,57859.75
2022-12-06T17:19:59.481Z,57955.28
2022-12-06T17:22:28.150Z,57875.66
2022-12-06T17:24:56.959Z,58054.81
2022-12-06T17:27:25.403Z,58140.44
2022-12-06T17:29:54.115Z,57971.22
2022-12-06T17:32:22.587Z,57835.84
2022-12-06T17:34:51.112Z,57792.06
2022-12-06T17:37:21.085Z,58094.63
2022-12-06T17:39:49.838Z,58174.28
2022-12-06T17:42:35.937Z,58349.47
2022-12-06T17:45:05.879Z,58263.84
2022-12-06T17:47:35.074Z,58218.06
2022-12-06T17:50:04.343Z,58249.91
2022-12-06T17:52:34.551Z,58301.69
2022-12-06T17:55:03.319Z,58510.72
2022-12-06T17:57:32.288Z,58640.16
2022-12-06T18:00:00.898Z,58393.25
2022-12-06T18:02:29.711Z,58488.84
2022-12-06T18:04:58.304Z,58353.44
2022-12-06T18:07:26.799Z,58624.22
2022-12-06T18:09:56.994Z,58719.78
2022-12-06T18:12:26.518Z,59004.53
2022-12-06T18:14:57.437Z,59301.25
2022-12-06T18:17:27.129Z,59868.88
2022-12-06T18:19:55.770Z,60388.75
2022-12-06T18:22:24.379Z,61169.75
2022-12-06T18:24:52.834Z,61871.22
2022-12-06T18:27:22.843Z,62150.25
2022-12-06T18:29:51.221Z,63107.06
2022-12-06T18:32:19.615Z,63832.88
2022-12-06T18:34:48.269Z,64331.44
2022-12-06T18:37:16.853Z,65781.66
2022-12-06T18:39:45.818Z,67476.06
2022-12-06T18:42:14.220Z,68514.28
2022-12-06T18:44:44.238Z,71187.13
2022-12-06T18:47:12.905Z,72210.47
2022-12-06T18:49:42.565Z,74002.03
2022-12-06T18:52:11.042Z,75026.22
2022-12-06T18:54:39.588Z,75794.56
2022-12-06T18:57:08.260Z,77075.53
2022-12-06T18:59:38.313Z,77844.31
2022-12-06T19:02:08.177Z,78356.94
2022-12-06T19:04:36.755Z,79126.03
2022-12-06T19:07:05.378Z,79638.84
2022-12-06T19:09:34.294Z,80151.75
2022-12-06T19:12:05.008Z,80664.72
2022-12-06T19:14:33.420Z,80921.25
2022-12-06T19:17:01.958Z,81434.31
2022-12-06T19:19:32.379Z,81947.50
2022-12-06T19:22:01.041Z,82204.09
2022-12-06T19:24:30.071Z,82717.38
2022-12-06T19:26:59.416Z,82974.03
2022-12-06T19:29:29.314Z,83230.72
2022-12-06T19:31:58.136Z,83230.72
2022-12-06T19:34:28.096Z,83487.44
2022-12-06T19:36:58.346Z,83744.16
2022-12-06T19:39:27.218Z,84000.91
2022-12-06T19:42:13.414Z,84514.44
2022-12-06T19:44:42.057Z,84771.25
2022-12-06T19:47:11.635Z,85028.06
2022-12-06T19:49:40.256Z,85284.91
2022-12-06T19:52:10.293Z,85541.78
2022-12-06T19:54:40.380Z,85798.66
2022-12-06T19:57:09.214Z,86055.56
2022-12-06T19:59:39.407Z,86312.47
2022-12-06T20:02:09.162Z,86312.47
2022-12-06T20:04:40.930Z,86312.47
2022-12-06T20:07:11.007Z,86312.47
2022-12-06T20:09:39.980Z,86312.47
2022-12-06T20:12:09.085Z,86826.34
2022-12-06T20:14:40.818Z,86826.34
2022-12-06T20:17:12.468Z,87083.34
2022-12-06T20:19:43.440Z,87340.31
2022-12-06T20:22:14.586Z,87340.31
2022-12-06T20:24:43.657Z,87597.34
2022-12-06T20:27:12.767Z,87340.31
2022-12-06T20:29:41.459Z,87597.34
2022-12-06T20:32:11.398Z,87597.34
2022-12-06T20:34:40.046Z,88111.41
2022-12-06T20:37:08.589Z,88111.41
2022-12-06T20:39:38.505Z,88368.50
2022-12-06T20:42:07.526Z,88111.41
2022-12-06T20:44:36.736Z,88111.41
2022-12-06T20:47:05.600Z,87854.38
2022-12-06T20:49:34.425Z,88111.41
2022-12-06T20:52:03.756Z,88368.50
2022-12-06T20:54:32.802Z,88368.50
2022-12-06T20:57:07.428Z,88882.69
2022-12-06T20:59:36.036Z,88625.56
2022-12-06T21:02:05.241Z,88882.69
2022-12-06T21:04:33.955Z,88882.69
2022-12-06T21:07:02.587Z,88882.69
2022-12-06T21:09:31.231Z,89396.97
2022-12-06T21:11:59.856Z,89654.13
2022-12-06T21:14:29.906Z,89911.31
2022-12-06T21:16:58.724Z,90682.97
2022-12-06T21:19:27.889Z,90940.22
2022-12-06T21:21:59.939Z,90940.22
2022-12-06T21:24:28.628Z,90940.22
2022-12-06T21:26:57.719Z,90940.22
2022-12-06T21:29:30.956Z,90425.72
2022-12-06T21:32:02.883Z,90168.50
2022-12-06T21:34:31.567Z,91197.50
2022-12-06T21:37:00.311Z,92226.81
2022-12-06T21:39:28.966Z,93513.91
2022-12-06T21:41:57.614Z,94801.44
2022-12-06T21:44:26.355Z,95059.00
2022-12-06T21:46:55.580Z,95059.00
2022-12-06T21:49:25.796Z,95316.59
2022-12-06T21:52:01.073Z,95574.19
2022-12-06T21:54:32.133Z,95574.19
2022-12-06T21:57:00.896Z,95574.19
2022-12-06T21:59:30.214Z,95831.81
2022-12-06T22:01:58.904Z,95831.81
2022-12-06T22:04:28.889Z,95831.81
2022-12-06T22:06:57.706Z,96347.13
2022-12-06T22:09:26.469Z,96604.81
2022-12-06T22:11:55.082Z,97377.97
2022-12-06T22:14:23.782Z,97635.72
2022-12-06T22:16:52.591Z,97635.72
2022-12-06T22:19:21.393Z,97377.97
2022-12-06T22:21:51.338Z,96862.50
2022-12-06T22:24:20.046Z,97377.97
2022-12-06T22:26:48.592Z,97893.50
2022-12-06T22:29:17.480Z,98151.31
2022-12-06T22:31:46.101Z,98409.13
2022-12-06T22:34:14.606Z,98666.94
2022-12-06T22:36:43.022Z,98666.94
2022-12-06T22:39:13.456Z,98666.94
2022-12-06T22:41:42.156Z,98666.94
2022-12-06T22:44:12.236Z,98666.94
2022-12-06T22:46:40.814Z,98409.13
2022-12-06T22:49:12.569Z,98666.94
2022-12-06T22:51:43.562Z,98924.81
2022-12-06T22:54:14.961Z,98924.81
2022-12-06T22:56:48.500Z,99182.69
2022-12-06T22:59:18.236Z,98924.81
2022-12-06T23:01:46.766Z,99182.69
2022-12-06T23:04:15.280Z,98409.13
2022-12-06T23:06:43.725Z,98409.13
2022-12-06T23:09:15.873Z,99182.69
2022-12-06T23:11:44.584Z,99698.47
2022-12-06T23:14:13.551Z,99956.41
2022-12-06T23:16:43.955Z,99698.47
2022-12-06T23:19:12.664Z,100472.31
2022-12-06T23:21:42.589Z,100214.34
2022-12-06T23:24:15.192Z,99440.56
2022-12-06T23:26:45.789Z,99440.56
2022-12-06T23:29:14.976Z,99698.47
2022-12-06T23:31:45.667Z,99956.41
2022-12-06T23:34:16.161Z,100472.31
2022-12-06T23:36:45.370Z,100730.31
2022-12-06T23:39:15.623Z,100988.31
2022-12-06T23:41:44.203Z,101246.34
2022-12-06T23:44:14.006Z,101246.34
2022-12-06T23:46:43.848Z,101762.47
2022-12-06T23:49:16.733Z,102536.75
2022-12-06T23:51:46.113Z,102536.75
2022-12-06T23:54:18.301Z,102794.91
2022-12-06T23:56:47.922Z,103311.25
2022-12-06T23:59:17.464Z,103569.44
